Time;durP1;ratioP1;P1;durP2;ratioP2;P2;SDS_P1;SDS_P2;PMS_P1;PMS_P2;Temp;Humidity;BMP_temperature;BMP_pressure;BME280_temperature;BME280_humidity;BME280_pressure;Samples;Min_cycle;Max_cycle;Signal;HPM_P1;HPM_P2
2022/04/27 00:01:17;;;;;;;30.60;17.20;;;;;;;6.70;97.97;97683.66;5064537;28;20047;-65
2022/04/27 00:03:44;;;;;;;31.92;17.02;;;;;;;6.81;98.50;97687.50;5065230;28;20044;-65
2022/04/27 00:06:11;;;;;;;31.83;17.60;;;;;;;6.80;96.37;97687.72;5064947;28;20040;-66
2022/04/27 00:08:38;;;;;;;27.45;16.30;;;;;;;6.81;96.00;97690.19;5072808;28;20113;-64
2022/04/27 00:11:04;;;;;;;28.88;16.20;;;;;;;6.85;96.60;97682.50;5046471;28;20546;-65
2022/04/27 00:13:31;;;;;;;26.80;16.13;;;;;;;6.60;96.64;97675.25;5044969;28;20049;-65
2022/04/27 00:15:57;;;;;;;30.75;17.27;;;;;;;6.53;98.18;97680.69;5044768;28;20044;-64
2022/04/27 00:18:24;;;;;;;31.38;17.27;;;;;;;6.47;98.51;97681.53;5061765;28;20416;-65
2022/04/27 00:20:50;;;;;;;31.38;17.13;;;;;;;6.40;98.49;97678.06;5066103;28;20048;-64
2022/04/27 00:23:17;;;;;;;30.40;16.83;;;;;;;6.40;97.97;97680.75;5064797;28;20492;-65
2022/04/27 00:25:44;;;;;;;32.50;17.00;;;;;;;6.47;98.16;97681.53;5063970;28;20055;-64
2022/04/27 00:28:11;;;;;;;29.85;16.67;;;;;;;6.48;98.33;97683.19;5064510;28;20404;-63
2022/04/27 00:30:37;;;;;;;36.03;17.80;;;;;;;6.47;98.33;97681.53;5062097;28;20041;-65
2022/04/27 00:33:04;;;;;;;32.67;16.58;;;;;;;6.66;99.46;97676.25;5064799;28;20448;-64
2022/04/27 00:35:31;;;;;;;31.90;17.45;;;;;;;6.53;98.30;97674.47;5063938;28;20036;-64
2022/04/27 00:37:57;;;;;;;31.08;17.83;;;;;;;6.35;97.91;97673.34;5057253;28;20064;-65
2022/04/27 00:40:24;;;;;;;29.83;16.58;;;;;;;6.49;99.25;97668.72;5051836;28;20043;-65
2022/04/27 00:42:51;;;;;;;33.20;17.35;;;;;;;6.54;98.18;97670.72;5043282;28;20136;-64
2022/04/27 00:45:18;;;;;;;30.65;16.00;;;;;;;6.45;98.15;97667.50;5045882;28;20499;-65
2022/04/27 00:47:44;;;;;;;30.30;16.73;;;;;;;6.40;98.69;97676.22;5043610;28;20048;-64
2022/04/27 00:50:11;;;;;;;31.88;17.40;;;;;;;6.32;98.30;97673.78;5042118;28;20048;-65
2022/04/27 00:52:38;;;;;;;33.65;16.17;;;;;;;6.35;99.21;97667.97;5043403;28;20048;-66
2022/04/27 00:56:09;;;;;;;29.23;16.60;;;;;;;6.27;98.82;97670.91;5135833;27;20148;-64
2022/04/27 00:58:42;;;;;;;30.65;16.27;;;;;;;6.31;99.07;97678.34;5103078;28;20067;-63
2022/04/27 01:01:17;;;;;;;31.92;16.27;;;;;;;6.44;99.74;97685.50;5082001;28;20044;-63
2022/04/27 01:03:44;;;;;;;30.77;17.67;;;;;;;6.37;99.02;97680.16;5083638;28;20044;-64
2022/04/27 01:06:11;;;;;;;33.97;17.25;;;;;;;6.35;98.64;97690.28;5081412;28;20052;-64
2022/04/27 01:08:38;;;;;;;33.13;17.58;;;;;;;6.48;99.33;97696.63;5089486;28;20040;-63
2022/04/27 01:11:06;;;;;;;33.72;17.77;;;;;;;6.52;98.83;97699.72;5079518;28;20512;-63
2022/04/27 01:13:39;;;;;;;32.92;18.10;;;;;;;6.49;99.00;97706.38;5080155;28;20036;-64
2022/04/27 01:16:06;;;;;;;34.38;18.67;;;;;;;6.44;99.03;97708.88;5080440;28;20157;-63
2022/04/27 01:18:34;;;;;;;38.72;19.45;;;;;;;6.47;100.00;97711.97;5077990;28;20132;-64
2022/04/27 01:21:03;;;;;;;33.65;17.98;;;;;;;6.45;99.77;97705.97;5082143;28;20636;-64
2022/04/27 01:23:33;;;;;;;37.70;18.83;;;;;;;6.44;99.42;97706.19;5081389;28;20093;-63
2022/04/27 01:26:06;;;;;;;32.72;17.73;;;;;;;6.52;99.03;97705.13;5080231;28;20044;-64
2022/04/27 01:28:35;;;;;;;35.92;18.52;;;;;;;6.43;98.69;97701.84;5081254;28;20048;-64
2022/04/27 01:31:04;;;;;;;34.65;18.70;;;;;;;6.48;99.12;97708.22;5080287;28;20080;-62
2022/04/27 01:33:34;;;;;;;35.17;19.05;;;;;;;6.57;99.77;97703.44;5080569;28;20700;-63
2022/04/27 01:36:09;;;;;;;34.33;19.10;;;;;;;6.59;99.29;97700.50;5080686;28;20041;-63
2022/04/27 01:38:37;;;;;;;34.67;18.20;;;;;;;6.63;99.49;97702.53;5090565;28;20055;-63
2022/04/27 01:41:04;;;;;;;33.28;18.40;;;;;;;6.63;99.17;97701.69;5079027;28;20044;-62
2022/04/27 01:43:31;;;;;;;34.33;18.88;;;;;;;6.62;97.71;97702.75;5080289;28;20051;-63
2022/04/27 01:45:58;;;;;;;32.10;18.48;;;;;;;6.64;97.59;97703.38;5078905;28;20517;-63
2022/04/27 01:48:26;;;;;;;33.15;17.98;;;;;;;6.70;97.43;97707.03;5080084;28;20098;-63
2022/04/27 01:50:53;;;;;;;30.45;17.08;;;;;;;6.76;99.16;97706.19;5078639;28;20037;-62
2022/04/27 01:56:07;;;;;;;33.92;18.23;;;;;;;6.68;97.51;97706.44;5079701;28;20055;-63
2022/04/27 01:58:48;;;;;;;30.83;17.45;;;;;;;6.68;97.66;97707.28;5080178;28;20048;-63
2022/04/27 02:01:15;;;;;;;29.45;17.27;;;;;;;6.69;97.25;97708.09;5073506;28;20175;-63
2022/04/27 02:03:42;;;;;;;27.73;16.40;;;;;;;6.76;97.81;97715.09;5081772;28;20051;-64
2022/04/27 02:06:13;;;;;;;31.13;17.00;;;;;;;6.72;97.85;97713.88;5074002;28;20040;-63
2022/04/27 02:08:40;;;;;;;31.10;17.42;;;;;;;6.75;98.09;97712.59;5067002;28;20044;-64
2022/04/27 02:11:07;;;;;;;31.88;17.77;;;;;;;6.71;98.15;97714.09;5066073;28;20140;-62
2022/04/27 02:13:37;;;;;;;35.20;18.38;;;;;;;6.78;97.72;97714.84;5066175;28;20482;-63
2022/04/27 02:16:04;;;;;;;31.15;16.73;;;;;;;6.66;97.64;97713.94;5067860;28;20122;-62
2022/04/27 02:18:36;;;;;;;28.42;16.25;;;;;;;6.76;96.24;97720.47;5065874;28;20037;-63
2022/04/27 02:21:04;;;;;;;26.75;15.48;;;;;;;6.79;97.02;97723.75;5064312;28;20048;-64
2022/04/27 02:23:30;;;;;;;24.95;14.95;;;;;;;6.73;95.80;97731.66;5066195;28;20044;-63
2022/04/27 02:26:01;;;;;;;25.85;14.45;;;;;;;6.65;95.92;97731.94;5065305;28;20045;-63
2022/04/27 02:28:27;;;;;;;25.58;14.77;;;;;;;6.68;96.42;97723.44;5066941;28;20143;-63
2022/04/27 02:30:54;;;;;;;26.75;14.07;;;;;;;6.66;95.15;97727.38;5064872;28;20047;-63
2022/04/27 02:33:21;;;;;;;22.52;14.15;;;;;;;6.69;94.61;97722.38;5066140;28;20551;-63
2022/04/27 02:35:47;;;;;;;23.65;14.55;;;;;;;6.59;95.10;97730.94;5065985;28;20052;-64
2022/04/27 02:38:14;;;;;;;23.20;13.73;;;;;;;6.67;94.92;97723.63;5064233;28;20048;-63
2022/04/27 02:40:41;;;;;;;27.05;15.35;;;;;;;6.55;95.51;97734.25;5063741;28;20496;-62
2022/04/27 02:43:07;;;;;;;26.17;14.02;;;;;;;6.53;95.73;97739.03;5061982;28;20074;-63
2022/04/27 02:45:34;;;;;;;25.73;14.13;;;;;;;6.48;96.43;97735.13;5067331;28;20045;-63
2022/04/27 02:48:01;;;;;;;23.63;14.23;;;;;;;6.51;97.03;97733.88;5065386;28;20050;-63
2022/04/27 02:53:12;;;;;;;23.95;14.43;;;;;;;6.46;96.94;97734.53;5065894;28;20075;-64
2022/04/27 02:55:40;;;;;;;25.52;14.73;;;;;;;6.51;97.58;97736.56;5064600;28;20064;-63
2022/04/27 02:58:06;;;;;;;28.08;14.82;;;;;;;6.51;97.32;97731.19;5067739;28;20032;-64
2022/04/27 03:00:34;;;;;;;25.55;13.52;;;;;;;6.57;96.86;97724.13;5098875;28;20561;-62
2022/04/27 03:03:09;;;;;;;22.60;12.68;;;;;;;6.56;95.70;97734.03;5086234;28;20054;-64
2022/04/27 03:05:37;;;;;;;21.02;13.23;;;;;;;6.63;94.78;97734.81;5062133;28;20651;-64
2022/04/27 03:08:05;;;;;;;23.20;13.52;;;;;;;6.55;95.98;97727.03;5046124;28;20125;-64
2022/04/27 03:10:38;;;;;;;24.83;14.25;;;;;;;6.59;96.34;97724.72;5045168;28;20079;-63
2022/04/27 03:13:06;;;;;;;26.30;14.88;;;;;;;6.60;96.51;97735.25;5053275;28;20049;-64
2022/04/27 03:15:33;;;;;;;26.20;14.80;;;;;;;6.68;95.20;97733.34;5064481;28;20037;-63
2022/04/27 03:20:50;;;;;;;22.40;12.80;;;;;;;6.72;95.46;97731.88;5065278;28;20063;-62
2022/04/27 03:23:17;;;;;;;23.58;15.07;;;;;;;6.62;95.06;97738.56;5066080;28;20051;-64
2022/04/27 03:25:49;;;;;;;22.73;13.05;;;;;;;6.68;94.38;97738.72;5064874;28;20040;-63
2022/04/27 03:28:16;;;;;;;23.15;13.35;;;;;;;6.62;94.86;97738.56;5067126;28;20047;-63
2022/04/27 03:30:42;;;;;;;23.63;13.73;;;;;;;6.60;95.49;97740.63;5065873;28;20068;-63
2022/04/27 03:33:28;;;;;;;22.48;12.80;;;;;;;6.67;94.52;97729.03;5066734;28;20055;-63
2022/04/27 03:35:55;;;;;;;20.20;12.27;;;;;;;6.73;94.96;97744.28;5064471;28;20043;-63
2022/04/27 03:38:23;;;;;;;21.55;11.63;;;;;;;6.78;94.78;97743.63;5063282;28;20051;-64
2022/04/27 03:40:50;;;;;;;19.27;11.77;;;;;;;6.87;92.96;97750.41;5061779;28;20041;-63
2022/04/27 03:43:17;;;;;;;16.88;11.05;;;;;;;6.88;92.92;97750.19;5059718;28;20473;-64
2022/04/27 03:45:44;;;;;;;17.90;11.07;;;;;;;6.79;93.60;97753.34;5083173;28;20079;-63
2022/04/27 03:48:10;;;;;;;20.45;12.48;;;;;;;6.75;94.86;97748.41;5063733;28;20072;-63
2022/04/27 03:50:37;;;;;;;18.83;10.70;;;;;;;6.83;94.32;97749.19;5064917;28;20048;-64
2022/04/27 03:53:04;;;;;;;19.25;11.52;;;;;;;6.84;94.15;97758.91;5064944;28;20044;-63
2022/04/27 03:55:33;;;;;;;17.42;10.57;;;;;;;6.73;93.85;97763.97;5063989;28;20397;-63
2022/04/27 03:58:04;;;;;;;16.73;9.75;;;;;;;6.81;93.14;97759.38;5064962;28;20040;-63
2022/04/27 04:00:33;;;;;;;15.27;8.85;;;;;;;6.87;92.50;97761.16;5061797;28;20048;-64
2022/04/27 04:03:13;;;;;;;15.98;8.90;;;;;;;6.94;91.70;97766.50;5063160;28;20036;-64
2022/04/27 04:05:46;;;;;;;14.32;8.50;;;;;;;7.01;90.89;97768.09;5063629;28;20128;-63
2022/04/27 04:08:13;;;;;;;15.70;8.77;;;;;;;6.93;91.73;97770.25;5066120;28;20045;-64
2022/04/27 04:10:40;;;;;;;15.68;8.65;;;;;;;7.00;91.15;97771.00;5061938;28;20101;-64
2022/04/27 04:13:07;;;;;;;18.98;9.98;;;;;;;6.79;92.40;97777.59;5062784;28;20153;-64
2022/04/27 04:15:57;;;;;;;17.05;9.63;;;;;;;6.78;93.01;97775.94;5063228;28;20089;-63
2022/04/27 04:18:38;;;;;;;15.83;9.27;;;;;;;6.78;93.50;97779.44;5061675;28;20099;-64
2022/04/27 04:21:15;;;;;;;14.02;9.25;;;;;;;6.78;92.96;97778.63;5059815;28;20070;-64
2022/04/27 04:24:02;;;;;;;15.90;9.00;;;;;;;6.82;92.54;97775.28;5063895;28;20032;-64
2022/04/27 04:29:18;;;;;;;15.60;9.55;;;;;;;6.73;93.14;97793.56;5063917;28;20047;-63
2022/04/27 04:31:44;;;;;;;16.88;11.00;;;;;;;6.69;94.18;97795.03;5061482;28;20462;-64
2022/04/27 04:34:23;;;;;;;19.65;11.73;;;;;;;6.56;94.87;97801.31;5066033;28;20242;-63
2022/04/27 04:36:50;;;;;;;19.25;10.82;;;;;;;6.66;95.54;97805.41;5051109;28;20041;-63
2022/04/27 04:39:16;;;;;;;17.67;11.38;;;;;;;6.64;94.86;97809.13;5042994;28;20401;-64
2022/04/27 04:41:45;;;;;;;22.13;11.82;;;;;;;6.65;95.02;97812.66;5039597;28;20095;-64
2022/04/27 04:44:12;;;;;;;18.95;11.05;;;;;;;6.54;94.83;97816.84;5049365;28;20573;-65
2022/04/27 04:46:58;;;;;;;17.98;10.38;;;;;;;6.57;94.50;97819.13;5060088;28;20183;-62
2022/04/27 04:49:50;;;;;;;18.25;10.15;;;;;;;6.66;95.04;97832.31;5060896;28;20048;-63
2022/04/27 04:52:49;;;;;;;19.70;11.40;;;;;;;6.70;95.52;97825.44;5048882;28;20052;-64
2022/04/27 04:55:34;;;;;;;19.70;11.75;;;;;;;6.66;94.96;97833.13;5063304;28;20068;-62
2022/04/27 04:58:12;;;;;;;18.73;12.00;;;;;;;6.64;95.62;97838.72;5061661;28;20415;-63
2022/04/27 05:01:01;;;;;;;19.25;11.77;;;;;;;6.64;94.11;97836.03;5040220;28;20063;-64
2022/04/27 05:04:04;;;;;;;19.25;12.02;;;;;;;6.59;95.00;97840.41;5041273;28;20060;-63
2022/04/27 05:06:51;;;;;;;22.73;13.10;;;;;;;6.65;95.96;97847.63;5061061;28;20073;-63
2022/04/27 05:09:36;;;;;;;22.60;12.75;;;;;;;6.74;95.77;97848.19;5061833;28;20056;-62
2022/04/27 05:12:20;;;;;;;20.45;12.68;;;;;;;6.66;94.66;97851.16;5059688;28;20536;-63
2022/04/27 05:15:01;;;;;;;20.45;12.05;;;;;;;6.62;95.27;97851.59;5055682;28;20076;-63
2022/04/27 05:17:57;;;;;;;20.45;12.40;;;;;;;6.76;94.87;97849.66;5019519;28;20064;-64
2022/04/27 05:20:45;;;;;;;20.65;12.35;;;;;;;6.78;94.63;97848.59;5040478;28;20068;-63
2022/04/27 05:23:37;;;;;;;22.25;12.77;;;;;;;6.80;94.07;97851.91;5060459;28;20091;-63
2022/04/27 05:26:22;;;;;;;22.20;13.90;;;;;;;6.70;94.78;97855.03;5065441;28;20130;-63
2022/04/27 05:32:05;;;;;;;20.90;12.77;;;;;;;6.77;94.24;97863.91;5062229;28;20044;-63
2022/04/27 05:34:38;;;;;;;18.38;11.48;;;;;;;6.87;93.34;97863.47;5073281;28;20059;-64
2022/04/27 05:37:24;;;;;;;18.90;11.55;;;;;;;6.97;93.29;97863.00;5073982;28;20213;-63
2022/04/27 05:40:06;;;;;;;;;;;;;;;7.06;92.70;97861.69;5061920;28;20048;-63
2022/04/27 05:42:57;;;;;;;17.67;10.85;;;;;;;7.18;93.36;97872.59;5064606;28;19925;-63
2022/04/27 05:45:43;;;;;;;16.80;11.65;;;;;;;7.22;92.26;97879.19;5065697;28;20126;-64
2022/04/27 05:48:32;;;;;;;16.58;11.05;;;;;;;7.13;91.78;97888.56;5054791;28;20053;-63
2022/04/27 05:51:07;;;;;;;17.92;11.45;;;;;;;7.15;92.31;97891.88;5062936;28;20068;-63
2022/04/27 05:53:46;;;;;;;19.48;11.70;;;;;;;7.15;93.63;97898.09;5064063;28;20044;-63
2022/04/27 05:56:50;;;;;;;18.33;11.55;;;;;;;7.23;92.60;97888.09;5069109;28;20070;-62
2022/04/27 05:59:35;;;;;;;18.90;11.20;;;;;;;7.25;92.67;97891.38;5068858;28;20056;-64
2022/04/27 06:02:09;;;;;;;19.90;11.43;;;;;;;7.32;91.71;97891.34;5063254;28;20115;-63
2022/04/27 06:04:37;;;;;;;18.98;11.80;;;;;;;7.51;92.36;97892.25;5066608;28;20075;-63
2022/04/27 06:07:06;;;;;;;20.15;11.93;;;;;;;7.59;91.67;97897.38;5063984;28;20056;-62
2022/04/27 06:09:32;;;;;;;22.17;12.95;;;;;;;7.61;93.40;97895.28;5063648;28;20051;-62
2022/04/27 06:12:08;;;;;;;18.40;11.98;;;;;;;7.73;89.52;97902.63;5062823;28;20056;-63
2022/04/27 06:14:44;;;;;;;17.05;11.60;;;;;;;7.76;89.42;97902.22;5065059;28;20640;-63
2022/04/27 06:17:21;;;;;;;16.10;10.52;;;;;;;7.73;89.53;97908.88;5064161;28;20052;-63
2022/04/27 06:19:48;;;;;;;18.75;10.50;;;;;;;7.97;89.75;97914.47;5065854;28;20044;-63
2022/04/27 06:22:15;;;;;;;15.95;10.43;;;;;;;8.01;88.64;97913.00;5065418;28;20653;-62
2022/04/27 06:24:42;;;;;;;15.88;10.25;;;;;;;8.21;86.96;97914.66;5066413;28;20044;-63
2022/04/27 06:27:27;;;;;;;13.60;9.50;;;;;;;8.15;87.56;97919.06;5057276;28;20158;-62
2022/04/27 06:29:53;;;;;;;15.02;10.07;;;;;;;8.24;85.65;97913.38;5058174;28;20326;-63
2022/04/27 06:32:20;;;;;;;13.48;9.13;;;;;;;8.29;85.68;97921.66;5060486;28;20048;-62
2022/04/27 06:34:49;;;;;;;13.18;8.70;;;;;;;8.16;88.18;97914.50;5067931;28;20063;-62
2022/04/27 06:37:16;;;;;;;13.73;8.85;;;;;;;8.52;84.43;97920.97;5062955;28;20482;-64
2022/04/27 06:39:45;;;;;;;12.23;8.10;;;;;;;8.73;83.22;97926.97;5063463;28;20308;-63
2022/04/27 06:42:12;;;;;;;15.68;9.70;;;;;;;8.51;85.32;97921.22;5062519;28;20040;-64
2022/04/27 06:44:38;;;;;;;14.48;9.00;;;;;;;8.70;83.94;97928.25;5076761;28;20511;-62
2022/04/27 06:47:30;;;;;;;13.20;9.30;;;;;;;8.59;84.13;97931.75;5087291;28;20067;-64
2022/04/27 06:50:16;;;;;;;14.40;9.15;;;;;;;8.76;83.67;97937.34;5067082;28;20068;-62
2022/04/27 06:53:01;;;;;;;12.07;8.55;;;;;;;9.12;80.76;97940.22;5064679;28;20380;-63
2022/04/27 06:55:47;;;;;;;13.32;8.82;;;;;;;9.28;81.30;97944.16;5071651;28;20181;-63
2022/04/27 06:58:20;;;;;;;12.93;8.60;;;;;;;9.23;81.16;97939.47;5057920;28;20056;-62
2022/04/27 07:00:59;;;;;;;13.30;9.48;;;;;;;9.13;81.57;97951.88;5062331;28;20139;-64
2022/04/27 07:03:28;;;;;;;14.50;9.20;;;;;;;9.14;81.09;97948.09;5063644;28;20044;-62
2022/04/27 07:05:54;;;;;;;15.20;9.77;;;;;;;9.17;81.25;97958.44;5074126;28;20045;-64
2022/04/27 07:08:21;;;;;;;15.48;9.75;;;;;;;9.21;81.03;97955.06;5062971;28;20040;-65
2022/04/27 07:10:49;;;;;;;14.52;9.45;;;;;;;9.09;80.97;97962.28;5064209;28;20044;-65
2022/04/27 07:13:15;;;;;;;10.32;7.60;;;;;;;9.33;78.06;97954.28;5063979;28;20036;-64
2022/04/27 07:15:50;;;;;;;12.88;8.27;;;;;;;9.45;78.09;97959.72;5063630;28;20033;-65
2022/04/27 07:18:16;;;;;;;14.18;7.70;;;;;;;9.44;77.70;97964.28;5065063;28;20056;-64
2022/04/27 07:20:43;;;;;;;12.23;7.90;;;;;;;9.71;76.79;97966.63;5063988;28;20102;-65
2022/04/27 07:23:09;;;;;;;12.18;7.82;;;;;;;9.08;80.94;97968.75;5058487;28;20045;-66
2022/04/27 07:25:36;;;;;;;11.32;7.15;;;;;;;9.01;80.40;97974.22;5066577;28;20713;-64
2022/04/27 07:28:03;;;;;;;12.57;7.72;;;;;;;9.40;79.68;97965.00;5067331;28;20397;-66
2022/04/27 07:30:30;;;;;;;11.07;7.40;;;;;;;9.47;79.65;97965.75;5066409;28;20129;-65
2022/04/27 07:32:57;;;;;;;10.43;7.60;;;;;;;9.50;82.47;97968.78;5066251;28;20040;-66
2022/04/27 07:35:23;;;;;;;12.68;7.82;;;;;;;9.66;81.07;97977.28;5066781;28;20114;-66
2022/04/27 07:37:50;;;;;;;10.43;7.30;;;;;;;9.66;79.66;97984.59;5064626;28;20582;-66
2022/04/27 07:40:16;;;;;;;9.68;6.75;;;;;;;9.95;77.18;97982.06;5066449;28;20059;-64
2022/04/27 07:42:43;;;;;;;12.68;8.02;;;;;;;9.97;77.03;97978.06;5066336;28;20036;-65
2022/04/27 07:45:10;;;;;;;11.07;7.60;;;;;;;9.67;78.23;97988.94;5079267;28;20491;-65
2022/04/27 07:47:44;;;;;;;11.85;7.38;;;;;;;9.53;77.49;97985.59;5086098;28;20415;-65
2022/04/27 07:50:14;;;;;;;10.68;7.20;;;;;;;9.82;76.20;97997.44;5087321;28;20040;-65
2022/04/27 07:52:41;;;;;;;11.23;7.43;;;;;;;9.93;76.54;97993.13;5084925;28;20097;-65
2022/04/27 07:55:09;;;;;;;8.57;6.35;;;;;;;10.30;74.49;97991.28;5087220;28;20044;-66
2022/04/27 07:57:37;;;;;;;9.88;6.65;;;;;;;10.28;74.18;97994.22;5086830;28;20047;-66
2022/04/27 08:00:07;;;;;;;9.68;6.47;;;;;;;10.41;73.80;97993.16;5083013;28;20047;-65
2022/04/27 08:02:40;;;;;;;7.22;4.70;;;;;;;10.13;73.60;98000.91;5066666;28;20044;-65
2022/04/27 08:05:09;;;;;;;8.05;5.43;;;;;;;9.88;74.80;98003.81;5065587;28;20684;-64
2022/04/27 08:07:40;;;;;;;9.30;4.82;;;;;;;10.09;72.89;98002.44;5065513;28;20044;-65
2022/04/27 08:10:11;;;;;;;7.18;4.97;;;;;;;10.00;73.84;98010.06;5066240;28;20489;-64
2022/04/27 08:12:39;;;;;;;7.85;4.68;;;;;;;10.24;72.31;98010.09;5066098;28;20115;-65
2022/04/27 08:15:07;;;;;;;8.15;5.30;;;;;;;10.18;74.99;98005.63;5063650;28;20428;-64
2022/04/27 08:17:34;;;;;;;7.82;5.00;;;;;;;9.91;73.96;98016.88;5066061;28;20040;-63
2022/04/27 08:22:46;;;;;;;6.28;4.00;;;;;;;10.10;71.16;98024.91;5063390;28;20618;-65
2022/04/27 08:25:13;;;;;;;7.30;4.97;;;;;;;9.90;72.67;98026.03;5062171;28;20126;-64
2022/04/27 08:27:39;;;;;;;7.60;4.70;;;;;;;9.85;74.13;98026.72;5075749;28;20396;-64
2022/04/27 08:30:07;;;;;;;7.40;4.90;;;;;;;10.02;74.20;98031.47;5062872;28;20098;-62
2022/04/27 08:32:33;;;;;;;6.63;4.47;;;;;;;10.29;71.27;98025.66;5060919;28;20036;-64
2022/04/27 08:35:00;;;;;;;6.90;4.25;;;;;;;10.63;70.61;98022.38;5063292;28;20048;-65
2022/04/27 08:37:26;;;;;;;6.97;4.18;;;;;;;10.90;69.61;98022.72;5068360;28;20040;-63
2022/04/27 08:39:54;;;;;;;7.65;4.80;;;;;;;11.34;70.14;98026.00;5068220;28;20127;-65
2022/04/27 08:42:20;;;;;;;6.00;3.60;;;;;;;11.54;66.86;98026.41;5062580;28;20045;-63
2022/04/27 08:44:47;;;;;;;7.22;4.40;;;;;;;11.79;66.04;98027.97;5072444;28;20105;-64
2022/04/27 08:47:15;;;;;;;6.78;4.45;;;;;;;11.42;66.37;98028.34;5050625;28;20041;-64
2022/04/27 08:49:42;;;;;;;7.70;4.47;;;;;;;11.15;69.58;98031.63;5062289;28;20045;-64
2022/04/27 08:52:11;;;;;;;5.78;3.65;;;;;;;11.75;65.40;98034.13;5048002;28;20048;-63
2022/04/27 08:54:38;;;;;;;6.50;4.25;;;;;;;11.99;63.54;98031.28;5063294;28;20051;-65
2022/04/27 08:57:05;;;;;;;5.80;3.47;;;;;;;12.14;63.60;98033.47;5061470;28;20046;-63
2022/04/27 08:59:32;;;;;;;5.32;3.42;;;;;;;12.20;63.86;98030.59;5076330;28;20500;-64
2022/04/27 09:02:25;;;;;;;5.50;3.75;;;;;;;11.65;64.35;98040.19;5063154;28;20051;-63
2022/04/27 09:05:08;;;;;;;5.93;3.97;;;;;;;11.82;63.66;98042.94;5061044;28;20052;-63
2022/04/27 09:07:42;;;;;;;6.18;3.90;;;;;;;11.57;64.92;98041.38;5061292;28;20044;-64
2022/04/27 09:10:11;;;;;;;6.22;3.75;;;;;;;12.18;62.29;98040.03;5062044;28;20040;-64
2022/04/27 09:12:49;;;;;;;8.10;4.53;;;;;;;12.15;66.23;98033.22;5061374;28;20058;-63
2022/04/27 09:15:18;;;;;;;7.30;4.10;;;;;;;12.53;63.59;98033.53;5068138;28;20055;-65
2022/04/27 09:20:54;;;;;;;7.70;4.30;;;;;;;12.55;63.39;98039.56;5065641;28;20102;-63
2022/04/27 09:23:26;;;;;;;6.25;4.03;;;;;;;12.53;63.25;98030.00;5066886;28;20048;-63
2022/04/27 09:26:00;;;;;;;5.28;3.15;;;;;;;12.47;61.77;98034.53;5065528;28;20075;-64
2022/04/27 09:28:30;;;;;;;6.90;3.83;;;;;;;12.19;62.41;98036.25;5065471;28;20519;-64
2022/04/27 09:31:01;;;;;;;5.70;3.58;;;;;;;12.21;63.23;98036.84;5066409;28;20048;-64
2022/04/27 09:33:34;;;;;;;6.68;3.63;;;;;;;12.67;61.55;98035.91;5066331;28;20123;-63
2022/04/27 09:36:17;;;;;;;5.63;3.80;;;;;;;12.34;61.16;98041.13;5065185;28;20041;-64
2022/04/27 09:38:43;;;;;;;8.43;3.90;;;;;;;12.67;61.00;98039.44;5065482;28;20044;-64
2022/04/27 09:41:10;;;;;;;6.28;4.07;;;;;;;12.90;59.76;98034.06;5065634;28;20045;-63
2022/04/27 09:43:46;;;;;;;6.13;3.85;;;;;;;13.09;60.40;98040.84;5066791;28;20037;-64
2022/04/27 09:46:25;;;;;;;6.38;4.10;;;;;;;13.11;59.73;98035.97;5052281;28;20411;-64
2022/04/27 09:49:11;;;;;;;7.82;4.03;;;;;;;12.51;61.42;98043.00;5066464;28;20052;-64
2022/04/27 09:52:03;;;;;;;6.13;3.85;;;;;;;12.66;61.27;98037.81;5064485;28;20078;-64
2022/04/27 09:54:31;;;;;;;5.68;3.47;;;;;;;13.09;59.60;98049.00;5066140;28;20072;-64
2022/04/27 09:57:00;;;;;;;7.10;3.47;;;;;;;13.36;58.35;98042.81;5064926;28;20036;-63
2022/04/27 09:59:31;;;;;;;6.97;4.15;;;;;;;13.27;59.78;98049.78;5066282;28;20044;-62
2022/04/27 10:02:04;;;;;;;6.05;3.42;;;;;;;12.97;58.93;98049.13;5065780;28;20049;-62
2022/04/27 10:04:30;;;;;;;5.97;3.65;;;;;;;13.04;59.40;98043.50;5064563;28;20055;-64
2022/04/27 10:07:00;;;;;;;5.72;3.30;;;;;;;12.98;59.91;98047.22;5065117;28;20128;-64
2022/04/27 10:09:29;;;;;;;6.55;3.70;;;;;;;13.11;59.35;98046.03;5077537;28;20043;-63
2022/04/27 10:12:13;;;;;;;4.93;2.85;;;;;;;13.35;59.22;98046.59;5061310;28;20046;-64
2022/04/27 10:14:40;;;;;;;5.47;3.10;;;;;;;13.57;58.06;98042.25;5070762;28;20049;-64
2022/04/27 10:17:07;;;;;;;6.75;3.25;;;;;;;13.58;58.58;98042.00;5065547;28;20466;-64
2022/04/27 10:19:33;;;;;;;4.97;3.28;;;;;;;13.18;59.13;98045.84;5064709;28;20049;-63
2022/04/27 10:22:04;;;;;;;5.97;3.72;;;;;;;13.70;57.73;98051.91;5065144;28;20055;-64
2022/04/27 10:24:33;;;;;;;4.72;3.20;;;;;;;13.45;57.71;98045.91;5066549;28;20094;-64
2022/04/27 10:27:21;;;;;;;6.95;3.42;;;;;;;13.17;58.60;98045.03;5063309;28;20060;-63
2022/04/27 10:29:58;;;;;;;7.40;3.60;;;;;;;12.60;60.69;98041.50;5070758;28;20039;-62
2022/04/27 10:32:43;;;;;;;6.47;4.18;;;;;;;12.80;60.05;98024.69;5071328;28;20033;-62
2022/04/27 10:35:17;;;;;;;6.28;4.07;;;;;;;12.81;59.08;98042.66;5052463;28;20059;-62
2022/04/27 10:37:59;;;;;;;5.88;3.80;;;;;;;12.80;59.90;98041.00;5068535;28;20047;-61
2022/04/27 10:40:38;;;;;;;6.07;3.83;;;;;;;12.94;60.09;98051.53;5072261;28;20048;-62
2022/04/27 10:43:07;;;;;;;5.75;4.47;;;;;;;13.45;58.80;98039.66;5064788;28;20106;-63
2022/04/27 10:45:36;;;;;;;6.30;4.00;;;;;;;13.34;59.69;98050.41;5068958;28;20048;-63
2022/04/27 10:48:06;;;;;;;7.13;4.45;;;;;;;13.66;57.91;98040.72;5065485;28;20041;-64
2022/04/27 10:50:34;;;;;;;6.32;4.40;;;;;;;13.67;59.14;98047.00;5076301;28;20036;-64
2022/04/27 10:53:45;;;;;;;7.50;4.45;;;;;;;13.17;59.83;98046.91;5065777;28;20388;-66
2022/04/27 10:56:32;;;;;;;6.07;4.10;;;;;;;14.06;57.82;98046.84;5045472;28;20428;-63
2022/04/27 10:58:59;;;;;;;6.47;3.92;;;;;;;13.93;57.03;98049.97;5067706;28;20048;-63
2022/04/27 11:01:27;;;;;;;7.55;4.90;;;;;;;14.21;55.54;98051.59;5064008;28;20029;-64
2022/04/27 11:03:59;;;;;;;6.80;4.70;;;;;;;14.09;56.63;98054.50;5063539;28;20047;-68
2022/04/27 11:06:26;;;;;;;5.97;3.90;;;;;;;14.10;56.53;98056.13;5064230;28;20044;-64
2022/04/27 11:09:23;;;;;;;6.50;4.70;;;;;;;13.17;58.88;98060.50;5063807;28;20040;-64
2022/04/27 11:11:54;;;;;;;6.72;3.90;;;;;;;13.61;57.21;98060.56;5066070;28;20052;-63
2022/04/27 11:14:31;;;;;;;8.77;6.18;;;;;;;13.39;56.60;98068.69;5065057;28;20090;-62
2022/04/27 11:16:57;;;;;;;6.53;4.35;;;;;;;13.51;55.76;98057.69;5063803;28;20044;-63
2022/04/27 11:19:38;;;;;;;6.72;3.65;;;;;;;13.80;55.57;98068.38;5062020;28;20055;-65
2022/04/27 11:22:23;;;;;;;6.97;4.33;;;;;;;13.23;55.80;98057.59;5064463;28;20048;-63
2022/04/27 11:24:50;;;;;;;7.80;4.32;;;;;;;13.07;56.98;98059.31;5064995;28;20044;-62
2022/04/27 11:27:26;;;;;;;8.02;4.47;;;;;;;13.44;56.74;98057.84;5062901;28;20045;-65
2022/04/27 11:29:54;;;;;;;7.15;4.32;;;;;;;13.20;57.72;98052.66;5064577;28;20053;-64
2022/04/27 11:32:20;;;;;;;8.98;5.03;;;;;;;13.18;57.73;98057.53;5063569;28;20047;-63
2022/04/27 11:34:48;;;;;;;6.07;4.80;;;;;;;13.36;57.13;98059.13;5064258;28;20040;-62
2022/04/27 11:37:19;;;;;;;7.78;4.80;;;;;;;13.38;58.80;98062.41;5076488;28;20090;-62
2022/04/27 11:39:47;;;;;;;8.43;5.18;;;;;;;13.55;57.90;98055.28;5063445;28;20059;-59
2022/04/27 11:42:16;;;;;;;7.22;4.82;;;;;;;13.60;57.15;98060.81;5063177;28;20056;-61
2022/04/27 11:44:51;;;;;;;7.13;4.72;;;;;;;14.13;57.19;98058.34;5072755;28;20048;-55
2022/04/27 11:47:32;;;;;;;8.73;4.88;;;;;;;14.14;55.73;98065.44;5063941;28;20040;-59
2022/04/27 11:50:04;;;;;;;7.38;5.13;;;;;;;13.52;55.85;98062.88;5060899;28;20048;-59
2022/04/27 11:52:31;;;;;;;6.97;4.88;;;;;;;13.60;54.79;98053.44;5063836;28;20496;-61
2022/04/27 11:55:09;;;;;;;6.78;4.60;;;;;;;14.14;54.74;98059.16;5063301;28;20059;-61
2022/04/27 11:57:36;;;;;;;6.45;4.32;;;;;;;14.28;53.83;98059.56;5063505;28;20067;-61
2022/04/27 12:00:03;;;;;;;8.93;4.47;;;;;;;13.86;54.04;98051.00;5068542;28;20281;-59
2022/04/27 12:02:40;;;;;;;6.32;4.35;;;;;;;14.22;54.61;98064.13;5068205;28;20085;-59
2022/04/27 12:05:08;;;;;;;7.13;4.80;;;;;;;14.76;53.96;98061.53;5063465;28;20048;-59
2022/04/27 12:07:38;;;;;;;6.43;4.53;;;;;;;14.52;54.22;98057.28;5062497;28;20094;-61
2022/04/27 12:10:14;;;;;;;6.55;4.57;;;;;;;14.85;53.24;98051.81;5067841;28;20040;-59
2022/04/27 12:12:41;;;;;;;7.15;4.30;;;;;;;14.52;53.35;98057.28;5069995;28;20059;-58